Marlow, OK

5:23 PM CDT on August 29, 2016 (GMT -0500)
The Marlow Review | | Change Station

Elev 1319 ft 34.65 °N, 97.96 °W | Updated 9 minutes ago

Mostly Cloudy
Mostly Cloudy
91.3 °F
Feels Like 95 °F
N
5.0
Wind Variable Wind from East
Gusts 8.0 mph

Today
High -- | Low -- °F
--% Chance of Precip.
Yesterday
High -- | Low -- °F
Precip. -- in
Pressure 30.04 in
Visibility -9999.0 miles
Clouds Scattered Clouds 6500 ft
Scattered Clouds 7500 ft
Mostly Cloudy 11000 ft
Heat Index 95 °F
Dew Point 67 °F
Humidity 45%
Rainfall 0.00 in
Snow Depth Not available.
7:03 AM 8:01 PM
Waning Crescent, 6% visible
METAR KDUC 292215Z AUTO 07004KT SCT065 SCT075 BKN110 32/18 A3004 RMK AO2 PWINO TSNO
Pressure 30.04 in
Visibility -9999.0 miles
Clouds Scattered Clouds 6500 ft
Scattered Clouds 7500 ft
Mostly Cloudy 11000 ft
Heat Index 95 °F
Dew Point 67 °F
Humidity 45%
Rainfall 0.00 in
Snow Depth Not available.
7:03 AM 8:01 PM
Waning Crescent, 6% visible
METAR KDUC 292215Z AUTO 07004KT SCT065 SCT075 BKN110 32/18 A3004 RMK AO2 PWINO TSNO

10-Day Weather Forecast

Almanac

Astronomy

Aug. 29, 2016 Rise Set
Actual Time
Civil Twilight
Nautical Twilight
Astronomical Twilight
Moon
Length of Visible Light
Length of Day
Tomorrow will be .
, % of the Moon is Illuminated

Today's Extremes

State Highs State Lows

Community

WunderPhotos

Upload Photos

1,935,690 photos uploaded!

WunderBlog® & News

Nearby

Air Quality

  Air Quality AQ Index Pollutant
Not available.

Snow Depth

Station Depth Elevation

Earthquake Activity

City Distance Mag. Time & Date
Minimum magnitude displayed is 2.5.

Coastal Water Temperatures

Place Temperature

Stations

Nearby Weather Stations

Station Location Temp. Windchill Dew Point Humidity Wind Precip. Elev Updated Type
                   

Watches & Warnings

There are currently no watches in effect.